createdAt,value
2023-10-23T00:02:19.651Z,2.90
2023-10-23T00:04:48.415Z,3.00
2023-10-23T00:07:17.316Z,2.70
2023-10-23T00:09:45.610Z,3.80
2023-10-23T00:12:13.955Z,2.70
2023-10-23T00:14:42.244Z,3.50
2023-10-23T00:17:10.662Z,3.20
2023-10-23T00:22:07.009Z,2.70
2023-10-23T00:24:35.380Z,3.00
2023-10-23T00:29:31.961Z,3.00
2023-10-23T00:32:00.181Z,2.90
2023-10-23T00:34:28.406Z,2.60
2023-10-23T00:36:56.565Z,3.50
2023-10-23T00:39:25.457Z,3.60
2023-10-23T00:44:21.889Z,4.00
2023-10-23T00:46:50.429Z,3.60
2023-10-23T00:49:19.028Z,2.90
2023-10-23T00:51:47.992Z,2.90
2023-10-23T00:54:16.889Z,3.10
2023-10-23T00:56:45.830Z,3.90
2023-10-23T00:59:14.918Z,2.70
2023-10-23T01:01:45.167Z,3.80
2023-10-23T01:04:13.574Z,3.50
2023-10-23T01:09:10.828Z,3.50
2023-10-23T01:11:39.061Z,3.80
2023-10-23T01:14:07.287Z,4.10
2023-10-23T01:16:35.544Z,3.60
2023-10-23T01:19:04.420Z,3.90
2023-10-23T01:21:32.697Z,3.40
2023-10-23T01:26:29.678Z,2.70
2023-10-23T01:28:58.001Z,4.20
2023-10-23T01:31:26.572Z,4.00
2023-10-23T01:33:56.191Z,4.00
2023-10-23T01:36:24.487Z,4.20
2023-10-23T01:38:52.690Z,3.50
2023-10-23T01:41:21.010Z,3.70
2023-10-23T01:43:49.223Z,3.80
2023-10-23T01:46:17.484Z,2.90
2023-10-23T01:48:45.905Z,3.20
2023-10-23T01:53:42.406Z,3.80
2023-10-23T01:56:10.771Z,3.80
2023-10-23T02:01:07.365Z,4.20
2023-10-23T02:03:35.815Z,3.50
2023-10-23T02:08:32.229Z,3.30
2023-10-23T02:11:01.454Z,3.70
2023-10-23T02:13:29.979Z,3.10
2023-10-23T02:18:26.428Z,3.90
2023-10-23T02:20:54.731Z,3.40
2023-10-23T02:23:23.049Z,3.80
2023-10-23T02:25:51.272Z,3.50
2023-10-23T02:28:19.623Z,4.20
2023-10-23T02:30:49.213Z,3.60
2023-10-23T02:35:46.662Z,9.30
2023-10-23T02:38:14.984Z,7.50
2023-10-23T02:40:52.181Z,7.20
2023-10-23T02:43:21.461Z,20.70
2023-10-23T02:45:49.797Z,21.60
2023-10-23T02:50:59.577Z,16.60
2023-10-23T02:53:27.896Z,20.80
2023-10-23T02:55:56.367Z,19.60
2023-10-23T03:00:52.720Z,17.50
2023-10-23T03:03:21.167Z,11.00
2023-10-23T03:05:49.703Z,13.00
2023-10-23T03:08:18.122Z,13.20
2023-10-23T03:13:14.362Z,12.70
2023-10-23T03:15:42.713Z,15.60
2023-10-23T03:18:11.952Z,15.20
2023-10-23T03:20:41.627Z,13.70
2023-10-23T03:23:09.849Z,11.40
2023-10-23T03:25:38.070Z,9.60
2023-10-23T03:28:06.289Z,10.30
2023-10-23T03:30:34.839Z,9.30
2023-10-23T03:33:03.170Z,10.10
2023-10-23T03:37:59.671Z,7.40
2023-10-23T03:40:27.892Z,7.50
2023-10-23T03:42:56.156Z,6.90
2023-10-23T03:45:24.453Z,7.60
2023-10-23T03:47:52.756Z,6.60
2023-10-23T03:50:21.168Z,6.40
2023-10-23T03:52:49.401Z,5.90
2023-10-23T03:55:17.708Z,5.70
2023-10-23T03:57:48.935Z,6.40
2023-10-23T04:00:17.664Z,5.00
2023-10-23T04:02:45.940Z,5.30
2023-10-23T04:05:14.984Z,5.90
2023-10-23T04:07:43.237Z,6.70
2023-10-23T04:10:15.253Z,6.70
2023-10-23T04:12:43.709Z,5.30
2023-10-23T04:15:12.108Z,4.80
2023-10-23T04:17:40.329Z,4.40
2023-10-23T04:20:09.091Z,4.50
2023-10-23T04:22:37.268Z,3.80
2023-10-23T04:25:05.948Z,4.60
2023-10-23T04:27:34.269Z,4.60
2023-10-23T04:30:06.424Z,4.70
2023-10-23T04:32:34.774Z,6.00
2023-10-23T04:37:31.720Z,4.30
2023-10-23T04:40:00.439Z,4.30
2023-10-23T04:42:28.804Z,4.20
2023-10-23T04:44:57.190Z,4.10
2023-10-23T04:47:25.476Z,4.40
2023-10-23T04:52:22.357Z,5.10
2023-10-23T04:54:53.396Z,4.40
2023-10-23T04:57:21.790Z,4.20
2023-10-23T04:59:50.133Z,5.10
2023-10-23T05:02:18.442Z,4.50
2023-10-23T05:04:46.798Z,6.40
2023-10-23T05:09:44.648Z,5.20
2023-10-23T05:12:13.043Z,9.30
2023-10-23T05:14:41.261Z,10.00
2023-10-23T05:17:09.480Z,4.80
2023-10-23T05:19:37.745Z,5.00
2023-10-23T05:24:34.156Z,9.90
2023-10-23T05:27:02.457Z,4.30
2023-10-23T05:29:30.677Z,4.50
2023-10-23T05:32:00.595Z,4.30
2023-10-23T05:34:28.817Z,4.60
2023-10-23T05:36:57.047Z,4.40
2023-10-23T05:39:25.303Z,5.30
2023-10-23T05:41:53.470Z,6.70
2023-10-23T05:44:22.018Z,5.60
2023-10-23T05:49:18.334Z,4.10
2023-10-23T05:51:46.821Z,4.70
2023-10-23T05:54:18.295Z,3.80
2023-10-23T05:56:46.707Z,5.00
2023-10-23T05:59:14.937Z,5.30
2023-10-23T06:01:43.186Z,5.40
2023-10-23T06:04:11.599Z,4.30
2023-10-23T06:06:40.194Z,3.60
2023-10-23T06:09:09.512Z,3.80
2023-10-23T06:11:37.946Z,3.80
2023-10-23T06:14:06.549Z,9.20
2023-10-23T06:19:03.904Z,22.20
2023-10-23T06:21:32.942Z,8.00
2023-10-23T06:24:02.345Z,6.20
2023-10-23T06:26:30.613Z,6.40
2023-10-23T06:28:59.181Z,4.70
2023-10-23T06:31:27.454Z,5.10
2023-10-23T06:33:55.973Z,5.20
2023-10-23T06:38:52.759Z,4.70
2023-10-23T06:43:49.202Z,5.60
2023-10-23T06:48:46.025Z,6.10
2023-10-23T06:51:17.493Z,4.00
2023-10-23T06:53:45.748Z,5.20
2023-10-23T06:58:43.942Z,5.20
2023-10-23T07:01:12.561Z,4.70
2023-10-23T07:03:41.245Z,5.30
2023-10-23T07:06:10.185Z,5.40
2023-10-23T07:08:40.633Z,6.50
2023-10-23T07:11:17.807Z,4.70
2023-10-23T07:13:46.130Z,4.30
2023-10-23T07:18:42.719Z,4.70
2023-10-23T07:23:40.432Z,4.20
2023-10-23T07:26:17.962Z,4.10
2023-10-23T07:28:46.780Z,4.30
2023-10-23T07:31:15.755Z,3.80
2023-10-23T07:33:44.752Z,3.70
2023-10-23T07:36:14.680Z,4.50
2023-10-23T07:38:44.064Z,4.70
2023-10-23T07:41:13.817Z,3.00
2023-10-23T07:43:43.984Z,3.50
2023-10-23T07:46:17.418Z,4.30
2023-10-23T07:48:47.395Z,4.10
2023-10-23T07:51:16.209Z,4.90
2023-10-23T07:53:44.843Z,4.10
2023-10-23T07:56:14.496Z,4.70
2023-10-23T07:58:43.095Z,4.50
2023-10-23T08:01:15.304Z,4.20
2023-10-23T08:03:43.828Z,4.80
2023-10-23T08:06:12.742Z,4.20
2023-10-23T08:08:42.245Z,3.60
2023-10-23T08:11:12.671Z,3.50
2023-10-23T08:13:41.652Z,3.30
2023-10-23T08:16:10.023Z,3.50
2023-10-23T08:18:41.333Z,3.00
2023-10-23T08:21:15.641Z,3.60
2023-10-23T08:23:46.252Z,4.30
2023-10-23T08:26:14.612Z,3.50
2023-10-23T08:31:29.472Z,3.10
2023-10-23T08:34:02.644Z,3.00
2023-10-23T08:36:31.141Z,3.00
2023-10-23T08:38:59.457Z,2.90
2023-10-23T08:43:57.443Z,2.40
2023-10-23T08:46:27.862Z,2.80
2023-10-23T08:48:56.363Z,3.00
2023-10-23T08:51:25.389Z,2.00
2023-10-23T08:54:10.934Z,2.40
2023-10-23T08:56:42.751Z,3.20
2023-10-23T08:59:14.468Z,3.50
2023-10-23T09:01:43.271Z,2.90
2023-10-23T09:04:13.140Z,3.50
2023-10-23T09:06:44.076Z,2.20
2023-10-23T09:09:13.052Z,3.10
2023-10-23T09:11:50.669Z,3.50
2023-10-23T09:14:29.738Z,3.00
2023-10-23T09:16:59.421Z,3.00
2023-10-23T09:19:38.501Z,2.80
2023-10-23T09:22:08.791Z,3.00
2023-10-23T09:24:38.786Z,6.10
2023-10-23T09:27:07.209Z,2.30
2023-10-23T09:29:37.154Z,2.80
2023-10-23T09:32:07.001Z,2.20
2023-10-23T09:34:43.293Z,3.90
2023-10-23T09:37:11.734Z,2.60
2023-10-23T09:39:41.732Z,2.50
2023-10-23T09:42:10.462Z,3.30
2023-10-23T09:44:40.333Z,3.00
2023-10-23T09:47:12.719Z,3.10
2023-10-23T09:49:42.107Z,3.30
2023-10-23T09:52:11.994Z,3.10
2023-10-23T09:54:44.751Z,2.80
2023-10-23T09:57:17.018Z,3.20
2023-10-23T09:59:54.979Z,2.90
2023-10-23T10:02:30.856Z,2.90
2023-10-23T10:05:06.592Z,2.50
2023-10-23T10:07:59.101Z,4.00
2023-10-23T10:12:57.766Z,2.80
2023-10-23T10:15:27.064Z,2.20
2023-10-23T10:17:55.354Z,2.60
2023-10-23T10:20:25.088Z,2.10
2023-10-23T10:23:05.278Z,2.10
2023-10-23T10:25:35.617Z,2.40
2023-10-23T10:28:05.850Z,3.00
2023-10-23T10:30:52.814Z,2.70
2023-10-23T10:34:18.386Z,2.00
2023-10-23T10:36:13.654Z,2.70
2023-10-23T10:38:42.566Z,1.90
2023-10-23T10:41:19.274Z,3.30
2023-10-23T10:43:54.805Z,3.10
2023-10-23T10:46:27.368Z,2.30
2023-10-23T10:48:57.377Z,2.60
2023-10-23T10:51:27.473Z,2.50
2023-10-23T10:54:00.070Z,3.10
2023-10-23T10:56:28.813Z,3.20
2023-10-23T10:59:01.203Z,3.00
2023-10-23T11:01:29.837Z,3.60
2023-10-23T11:03:58.577Z,3.00
2023-10-23T11:06:27.113Z,2.70
2023-10-23T11:08:56.398Z,2.80
2023-10-23T11:11:27.565Z,3.00
2023-10-23T11:13:56.143Z,2.90
2023-10-23T11:16:24.780Z,6.90
2023-10-23T11:18:53.159Z,3.50
2023-10-23T11:21:24.716Z,6.50
2023-10-23T11:23:57.550Z,6.40
2023-10-23T11:26:27.597Z,3.00
2023-10-23T11:28:55.946Z,2.50
2023-10-23T11:31:24.276Z,2.50
2023-10-23T11:33:53.718Z,2.60
2023-10-23T11:36:23.014Z,4.20
2023-10-23T11:38:52.038Z,4.70
2023-10-23T11:41:22.566Z,5.20
2023-10-23T11:43:59.523Z,7.40
2023-10-23T11:46:28.448Z,6.20
2023-10-23T11:48:56.760Z,4.80
2023-10-23T11:51:25.683Z,2.90
2023-10-23T11:53:54.834Z,2.40
2023-10-23T11:56:23.026Z,2.50
2023-10-23T11:58:51.550Z,2.20
2023-10-23T12:01:19.869Z,2.00
2023-10-23T12:03:48.244Z,2.20
2023-10-23T12:06:16.611Z,1.80
2023-10-23T12:08:44.830Z,1.90
2023-10-23T12:11:13.353Z,1.90
2023-10-23T12:13:41.776Z,1.80
2023-10-23T12:16:11.438Z,1.70
2023-10-23T12:18:39.823Z,1.60
2023-10-23T12:21:08.153Z,1.50
2023-10-23T12:23:36.359Z,1.60
2023-10-23T12:26:04.773Z,1.60
2023-10-23T12:28:33.463Z,1.40
2023-10-23T12:31:01.711Z,1.20
2023-10-23T12:33:50.757Z,1.60
2023-10-23T12:36:19.539Z,1.20
2023-10-23T12:38:47.876Z,1.60
2023-10-23T12:41:16.221Z,1.30
2023-10-23T12:43:44.677Z,1.40
2023-10-23T12:46:13.131Z,1.70
2023-10-23T12:48:45.145Z,2.10
2023-10-23T12:51:13.588Z,4.70
2023-10-23T12:53:41.799Z,3.60
2023-10-23T12:56:10.122Z,1.50
2023-10-23T12:58:38.444Z,2.30
2023-10-23T13:01:06.712Z,1.90
2023-10-23T13:03:35.009Z,2.90
2023-10-23T13:06:05.008Z,1.70
2023-10-23T13:08:33.235Z,1.50
2023-10-23T13:11:02.052Z,3.40
2023-10-23T13:13:30.601Z,3.70
2023-10-23T13:15:58.963Z,4.20
2023-10-23T13:18:27.418Z,1.60
2023-10-23T13:21:33.114Z,2.40
2023-10-23T13:23:44.831Z,1.50
2023-10-23T13:26:14.455Z,1.30
2023-10-23T13:28:43.177Z,1.50
2023-10-23T13:31:12.528Z,1.20
2023-10-23T13:33:40.922Z,1.30
2023-10-23T13:36:09.995Z,1.50
2023-10-23T13:38:38.972Z,1.10
2023-10-23T13:41:07.488Z,1.80
2023-10-23T13:43:35.816Z,1.20
2023-10-23T13:46:05.712Z,2.10
2023-10-23T13:48:34.562Z,1.40
2023-10-23T13:51:03.041Z,2.30
2023-10-23T13:53:32.820Z,1.80
2023-10-23T13:56:01.033Z,1.90
2023-10-23T13:58:29.267Z,2.00
2023-10-23T14:00:58.775Z,1.30
2023-10-23T14:03:29.203Z,3.10
2023-10-23T14:05:59.227Z,1.50
2023-10-23T14:09:42.418Z,2.20
2023-10-23T14:12:00.374Z,1.70
2023-10-23T14:14:04.342Z,4.20
2023-10-23T14:16:32.620Z,3.20
2023-10-23T14:19:00.994Z,1.90
2023-10-23T14:21:29.710Z,1.90
2023-10-23T14:23:57.916Z,1.60
2023-10-23T14:26:26.945Z,1.60
2023-10-23T14:28:55.767Z,1.50
2023-10-23T14:31:24.049Z,2.30
2023-10-23T14:33:52.437Z,1.90
2023-10-23T14:36:20.645Z,2.30
2023-10-23T14:41:17.067Z,2.60
2023-10-23T14:43:45.288Z,2.60
2023-10-23T14:46:15.396Z,2.40
2023-10-23T14:48:44.039Z,2.20
2023-10-23T14:51:12.260Z,2.50
2023-10-23T14:53:40.786Z,6.80
2023-10-23T14:56:10.717Z,12.60
2023-10-23T14:58:39.180Z,9.60
2023-10-23T15:01:09.450Z,5.90
2023-10-23T15:03:42.858Z,6.40
2023-10-23T15:06:13.081Z,6.40
2023-10-23T15:08:43.803Z,11.60
2023-10-23T15:11:16.053Z,7.40
2023-10-23T15:13:44.321Z,5.80
2023-10-23T15:16:12.572Z,6.20
2023-10-23T15:18:40.846Z,4.80
2023-10-23T15:23:37.787Z,5.60
2023-10-23T15:26:06.228Z,6.30
2023-10-23T15:28:36.795Z,5.40
2023-10-23T15:31:07.196Z,5.10
2023-10-23T15:33:37.221Z,6.10
2023-10-23T15:36:07.279Z,9.00
2023-10-23T15:38:36.836Z,11.00
2023-10-23T15:41:10.466Z,9.10
2023-10-23T15:43:40.622Z,217.10
2023-10-23T15:46:16.989Z,89.50
2023-10-23T15:48:46.016Z,85.40
2023-10-23T15:51:15.875Z,27.80
2023-10-23T15:53:44.142Z,13.80
2023-10-23T15:58:40.680Z,8.60
2023-10-23T16:03:38.966Z,8.20
2023-10-23T16:06:11.188Z,9.60
2023-10-23T16:08:39.948Z,12.30
2023-10-23T16:11:09.212Z,14.30
2023-10-23T16:13:38.557Z,12.50
2023-10-23T16:16:15.313Z,12.10
2023-10-23T16:18:47.393Z,32.20
2023-10-23T16:21:16.830Z,31.80
2023-10-23T16:23:45.377Z,32.90
2023-10-23T16:26:13.697Z,34.10
2023-10-23T16:28:42.006Z,29.40
2023-10-23T16:33:43.594Z,22.70
2023-10-23T16:36:12.688Z,29.40
2023-10-23T16:38:40.922Z,30.00
2023-10-23T16:41:09.238Z,35.70
2023-10-23T16:48:42.810Z,33.10
2023-10-23T16:51:11.451Z,34.20
2023-10-23T16:53:39.972Z,36.80
2023-10-23T16:56:08.489Z,56.40
2023-10-23T16:58:36.794Z,71.00
2023-10-23T17:01:09.715Z,72.90
2023-10-23T17:03:41.719Z,65.50
2023-10-23T17:06:10.780Z,47.80
2023-10-23T17:08:39.120Z,30.80
2023-10-23T17:11:08.990Z,32.10
2023-10-23T17:13:38.223Z,29.10
2023-10-23T17:16:07.689Z,28.80
2023-10-23T17:18:36.020Z,26.90
2023-10-23T17:23:35.152Z,19.70
2023-10-23T17:26:03.497Z,18.50
2023-10-23T17:31:00.843Z,13.60
2023-10-23T17:33:32.033Z,11.00
2023-10-23T17:36:00.999Z,10.90
2023-10-23T17:38:29.307Z,8.30
2023-10-23T17:43:26.259Z,30.00
2023-10-23T17:45:55.367Z,19.50
2023-10-23T17:48:23.693Z,20.60
2023-10-23T17:53:21.331Z,21.70
2023-10-23T17:55:49.568Z,16.70
2023-10-23T17:58:17.915Z,14.30
2023-10-23T18:00:46.242Z,14.50
2023-10-23T18:03:15.407Z,42.30
2023-10-23T18:05:43.845Z,18.00
2023-10-23T18:08:12.056Z,24.90
2023-10-23T18:10:40.323Z,22.50
2023-10-23T18:15:38.020Z,7.00
2023-10-23T18:18:06.268Z,11.60
2023-10-23T18:23:02.678Z,4.00
2023-10-23T18:25:31.734Z,3.20
2023-10-23T18:27:59.967Z,3.60
2023-10-23T18:32:56.513Z,3.20
2023-10-23T18:37:54.090Z,4.40
2023-10-23T18:40:22.410Z,4.10
2023-10-23T18:45:24.185Z,2.90
2023-10-23T18:47:52.680Z,2.30
2023-10-23T18:50:21.328Z,2.50
2023-10-23T18:52:49.748Z,2.80
2023-10-23T18:57:46.085Z,2.30
2023-10-23T19:00:16.750Z,2.50
2023-10-23T19:02:45.588Z,3.20
2023-10-23T19:05:13.963Z,2.50
2023-10-23T19:07:42.222Z,2.60
2023-10-23T19:12:39.425Z,2.60
2023-10-23T19:17:40.989Z,2.60
2023-10-23T19:20:10.828Z,1.90
2023-10-23T19:22:39.803Z,2.40
2023-10-23T19:25:08.991Z,2.20
2023-10-23T19:27:37.474Z,2.00
2023-10-23T19:30:06.813Z,2.00
2023-10-23T19:32:35.636Z,2.00
2023-10-23T19:35:04.325Z,2.80
2023-10-23T19:37:33.328Z,2.60
2023-10-23T19:40:03.014Z,2.60
2023-10-23T19:42:38.550Z,3.00
2023-10-23T19:45:09.063Z,2.40
2023-10-23T19:47:37.913Z,2.30
2023-10-23T19:50:07.135Z,3.20
2023-10-23T19:52:37.625Z,2.80
2023-10-23T19:55:44.760Z,3.80
2023-10-23T19:57:55.575Z,3.20
2023-10-23T20:00:24.108Z,3.50
2023-10-23T20:02:52.472Z,3.40
2023-10-23T20:05:20.917Z,3.70
2023-10-23T20:07:49.275Z,3.00
2023-10-23T20:12:46.216Z,3.20
2023-10-23T20:15:14.648Z,3.70
2023-10-23T20:17:42.903Z,4.70
2023-10-23T20:22:39.653Z,4.20
2023-10-23T20:27:36.449Z,3.20
2023-10-23T20:30:06.536Z,4.00
2023-10-23T20:32:35.711Z,3.50
2023-10-23T20:35:05.679Z,3.90
2023-10-23T20:37:35.218Z,3.40
2023-10-23T20:40:05.147Z,3.40
2023-10-23T20:42:37.572Z,4.50
2023-10-23T20:45:07.283Z,4.20
2023-10-23T20:47:36.007Z,3.60
2023-10-23T20:50:04.765Z,4.20
2023-10-23T20:52:33.791Z,4.40
2023-10-23T20:55:02.435Z,4.30
2023-10-23T20:57:31.718Z,5.30
2023-10-23T21:00:00.162Z,6.10
2023-10-23T21:02:29.354Z,4.20
2023-10-23T21:04:57.680Z,5.20
2023-10-23T21:07:26.174Z,4.70
2023-10-23T21:25:22.496Z,3.90
2023-10-23T21:27:51.923Z,3.30
2023-10-23T21:30:20.559Z,3.50
2023-10-23T21:32:48.796Z,3.70
2023-10-23T21:35:16.983Z,3.70
2023-10-23T21:37:45.567Z,4.30
2023-10-23T21:40:14.032Z,2.70
2023-10-23T21:42:42.451Z,3.50
2023-10-23T21:45:10.669Z,3.30
2023-10-23T21:50:08.010Z,2.70
2023-10-23T21:52:36.661Z,2.90
2023-10-23T21:55:13.994Z,2.90
2023-10-23T21:57:47.803Z,2.50
2023-10-23T22:00:29.117Z,2.50
2023-10-23T22:02:58.774Z,3.20
2023-10-23T22:05:27.824Z,2.20
2023-10-23T22:07:57.136Z,2.10
2023-10-23T22:10:26.835Z,2.70
2023-10-23T22:12:57.344Z,2.80
2023-10-23T22:15:25.634Z,2.20
2023-10-23T22:17:54.426Z,2.30
2023-10-23T22:20:22.968Z,2.50
2023-10-23T22:25:19.635Z,2.50
2023-10-23T22:27:48.131Z,2.10
2023-10-23T22:30:16.676Z,2.60
2023-10-23T22:32:47.809Z,2.50
2023-10-23T22:35:20.328Z,3.40
2023-10-23T22:38:06.967Z,2.80
2023-10-23T22:40:37.472Z,2.30
2023-10-23T22:43:05.814Z,3.20
2023-10-23T22:48:13.879Z,4.00
2023-10-23T22:50:42.526Z,4.30
2023-10-23T22:53:11.189Z,3.70
2023-10-23T22:55:40.601Z,4.20
2023-10-23T22:58:13.078Z,4.60
2023-10-23T23:00:41.875Z,3.90
2023-10-23T23:03:10.746Z,3.30
2023-10-23T23:05:40.861Z,3.80
2023-10-23T23:08:12.408Z,2.50
2023-10-23T23:10:41.023Z,3.00
2023-10-23T23:13:09.960Z,2.30
2023-10-23T23:15:40.295Z,1.90
2023-10-23T23:18:09.446Z,1.60
2023-10-23T23:20:42.594Z,2.10
2023-10-23T23:23:10.921Z,1.60
2023-10-23T23:28:07.421Z,1.60
2023-10-23T23:33:03.939Z,5.90
2023-10-23T23:35:32.425Z,5.90
2023-10-23T23:40:28.756Z,2.30
2023-10-23T23:45:25.185Z,3.40
2023-10-23T23:50:21.522Z,2.30
2023-10-23T23:52:49.842Z,4.00
2023-10-23T23:57:46.881Z,4.50
